• Join FlightAware (Why Join?)
  • Login
  • US Flag 
05:49AM EDT


 

Airport Tracker/Info


-or-


 

Live Flight TrackerFlight Track Log ✈ FDX1347 ✈ 06-Apr-2012 ✈ KALB - KMEM

Flight Track Log - Related Links

Times and Time Zones

All times are in EDT time to prevent confusion due to time zone crossing. See the FDX1347 flight status page for this flight to view local times or setup timezone preferences in your user account.

Time Position Orientation Groundspeed Altitude Reporting Facility
EDT Latitude Longitude Course Direction KTS MPH feet Rate Location/Type
09:54PM 42.7653 -73.8061 289° West 156 180 1,700  Level Boston Center
09:55PM 42.7811 -73.8686 269° West 226 260 4,200 2,700 Climbing Boston Center
09:55PM 42.7803 -73.9450 262° West 272 313 6,700 3,120 Climbing Boston Center
09:56PM 42.7706 -74.0439 262° West 285 328 10,000 2,520 Climbing Boston Center
09:57PM 42.7583 -74.1594 261° West 305 351 11,800 2,040 Climbing Boston Center
09:58PM 42.7417 -74.2975 228° Southwest 355 409 14,100 3,720 Climbing Boston Center
09:59PM 42.6731 -74.4028 230° Southwest 369 425 19,300 3,420 Climbing Boston Center
10:00PM 42.6089 -74.5078 228° Southwest 377 434 21,000 1,560 Climbing Boston Center
10:01PM 42.5272 -74.6292 227° Southwest 420 483 22,500 1,800 Climbing Boston Center
10:02PM 42.4392 -74.7583 229° Southwest 454 522 24,600 2,100 Climbing Boston Center
10:03PM 42.3508 -74.8956 228° Southwest 483 556 26,800 2,040 Climbing Boston Center
10:04PM 42.2603 -75.0294 228° Southwest 488 562 28,700 2,220 Climbing Boston Center
10:07PM 42.0569 -75.3330 239° Southwest 480 552 34,000 2,400 Climbing FlightAware ADS-B
10:07PM 42.0226 -75.4110 241° Southwest 467 537 35,200 1,860 Climbing FlightAware ADS-B
10:08PM 41.9905 -75.4892 242° Southwest 457 526 36,000 720 Climbing FlightAware ADS-B
10:08PM 41.9593 -75.5684 241° Southwest 454 522 36,000  Level FlightAware ADS-B
10:09PM 41.8946 -75.7255 241° Southwest 462 532 36,000  Level FlightAware ADS-B
10:10PM 41.8588 -75.8112 240° Southwest 467 537 36,000  Level FlightAware ADS-B
10:10PM 41.8268 -75.8870 241° Southwest 470 541 36,000  Level FlightAware ADS-B
10:11PM 41.7947 -75.9634 241° Southwest 471 542 36,000  Level FlightAware ADS-B
10:11PM 41.7601 -76.0471 241° Southwest 470 541 36,000  Level FlightAware ADS-B
10:12PM 41.7280 -76.1231 240° Southwest 469 540 36,000  Level FlightAware ADS-B
10:12PM 41.6948 -76.2015 241° Southwest 469 540 36,000  Level FlightAware ADS-B
10:13PM 41.6619 -76.2794 241° Southwest 468 539 36,000  Level FlightAware ADS-B
10:13PM 41.6301 -76.3548 240° Southwest 466 536 36,000  Level FlightAware ADS-B
10:14PM 41.5971 -76.4322 240° Southwest 464 534 36,000  Level FlightAware ADS-B
10:14PM 41.5623 -76.5142 240° Southwest 463 533 36,000  Level FlightAware ADS-B
10:15PM 41.5301 -76.5885 241° Southwest 464 534 36,000  Level FlightAware ADS-B
10:16PM 41.4946 -76.6728 240° Southwest 464 534 36,000  Level FlightAware ADS-B
10:16PM 41.4609 -76.7498 240° Southwest 464 534 36,000  Level FlightAware ADS-B
10:17PM 41.4278 -76.8266 240° Southwest 464 534 36,000  Level FlightAware ADS-B
10:17PM 41.3945 -76.9034 240° Southwest 464 534 36,000  Level FlightAware ADS-B
10:18PM 41.3618 -76.9801 240° Southwest 465 535 36,000  Level FlightAware ADS-B
10:18PM 41.3290 -77.0569 239° Southwest 466 536 36,000  Level FlightAware ADS-B
10:19PM 41.2916 -77.1413 240° Southwest 467 537 36,000  Level FlightAware ADS-B
10:19PM 41.2585 -77.2183 240° Southwest 468 539 36,000  Level FlightAware ADS-B
10:20PM 41.2233 -77.2978 240° Southwest 467 537 36,000  Level New York Center
10:21PM 41.1295 -77.5110 240° Southwest 469 540 36,000  Level FlightAware ADS-B
10:22PM 41.0963 -77.5880 239° Southwest 469 540 36,000  Level FlightAware ADS-B
10:22PM 41.0525 -77.6849 240° Southwest 471 542 36,000  Level FlightAware ADS-B
10:24PM 40.9847 -77.8381 240° Southwest 475 547 36,000  Level Cleveland Center
10:25PM 40.9194 -77.9864 236° Southwest 475 547 36,000  Level Cleveland Center
10:26PM 40.8475 -78.1264 236° Southwest 475 547 36,000  Level Cleveland Center
10:27PM 40.7733 -78.2717 238° Southwest 475 547 36,000  Level Cleveland Center
10:28PM 40.7033 -78.4167 235° Southwest 480 552 36,000  Level Cleveland Center
10:29PM 40.6289 -78.5586 237° Southwest 475 547 36,000  Level Cleveland Center
10:30PM 40.5583 -78.7000 236° Southwest 475 547 36,000  Level Cleveland Center
10:31PM 40.4853 -78.8414 236° Southwest 475 547 36,000  Level Cleveland Center
10:32PM 40.4125 -78.9850 241° Southwest 475 547 36,000  Level Cleveland Center
10:33PM 40.3497 -79.1311 243° Southwest 470 541 36,000  Level Cleveland Center
10:34PM 40.2911 -79.2794 243° Southwest 459 528 36,000  Level Cleveland Center
10:35PM 40.2344 -79.4272 243° Southwest 459 528 36,000  Level Cleveland Center
10:36PM 40.1775 -79.5750 241° Southwest 459 528 36,000  Level Cleveland Center
10:37PM 40.1161 -79.7225 243° Southwest 459 528 36,000  Level Cleveland Center
10:38PM 40.0567 -79.8725 243° Southwest 459 528 36,000  Level Cleveland Center
10:39PM 39.9992 -80.0194 241° Southwest 459 528 36,000  Level Cleveland Center
10:40PM 39.9372 -80.1661 242° Southwest 459 528 36,000  Level Cleveland Center
10:41PM 39.8772 -80.3153 241° Southwest 459 528 36,000  Level Cleveland Center
10:42PM 39.8150 -80.4642 242° Southwest 459 528 36,000  Level Cleveland Center
10:43PM 39.7503 -80.6236 240° Southwest 459 528 36,000  Level Cleveland Center
10:44PM 39.6411 -80.8714 242° Southwest 471 542 36,000  Level Indianapolis Center
10:45PM 39.5817 -81.0167 241° Southwest 465 535 36,000  Level Indianapolis Center
10:46PM 39.5181 -81.1669 242° Southwest 465 535 36,000  Level Indianapolis Center
10:47PM 39.4586 -81.3142 241° Southwest 465 535 36,000  Level Indianapolis Center
10:48PM 39.3964 -81.4586 241° Southwest 465 535 36,000  Level Indianapolis Center
10:49PM 39.3344 -81.6053 241° Southwest 465 535 36,000  Level Indianapolis Center
10:50PM 39.2719 -81.7492 241° Southwest 465 535 36,000  Level Indianapolis Center
10:51PM 39.2094 -81.8928 242° Southwest 465 535 36,000  Level Indianapolis Center
10:52PM 39.1428 -82.0522 240° Southwest 465 535 36,000  Level Indianapolis Center
10:53PM 39.0819 -82.1900 241° Southwest 465 535 36,000  Level Indianapolis Center
10:54PM 39.0208 -82.3303 241° Southwest 465 535 36,000  Level Indianapolis Center
10:55PM 38.9597 -82.4700 240° Southwest 459 528 36,000  Level Indianapolis Center
10:56PM 38.8983 -82.6072 241° Southwest 459 528 36,000  Level Indianapolis Center
10:57PM 38.8369 -82.7467 241° Southwest 454 522 36,000  Level Indianapolis Center
10:58PM 38.7772 -82.8831 240° Southwest 454 522 36,000  Level Indianapolis Center
10:59PM 38.7153 -83.0219 240° Southwest 454 522 36,000  Level Indianapolis Center
11:00PM 38.6514 -83.1633 239° Southwest 449 517 36,000  Level Indianapolis Center
11:01PM 38.5953 -83.2833 240° Southwest 449 517 36,000  Level Indianapolis Center
11:02PM 38.5331 -83.4217 240° Southwest 449 517 36,000  Level Indianapolis Center
11:03PM 38.4706 -83.5597 240° Southwest 449 517 36,000  Level Indianapolis Center
11:04PM 38.4100 -83.6947 239° Southwest 449 517 36,000  Level Indianapolis Center
11:05PM 38.3472 -83.8297 238° Southwest 449 517 36,000  Level Indianapolis Center
11:06PM 38.2819 -83.9644 240° Southwest 449 517 36,000  Level Indianapolis Center
11:07PM 38.2189 -84.1017 240° Southwest 449 517 36,000  Level Indianapolis Center
11:08PM 38.1556 -84.2383 239° Southwest 449 517 36,000  Level Indianapolis Center
11:09PM 38.0829 -84.3909 240° Southwest 449 517 36,000  Level FlightAware ADS-B
11:10PM 38.0506 -84.4610 239° Southwest 449 517 36,000  Level FlightAware ADS-B
11:10PM 38.0187 -84.5289 239° Southwest 449 517 36,000  Level FlightAware ADS-B
11:11PM 37.9850 -84.6013 239° Southwest 450 518 36,000  Level FlightAware ADS-B
11:11PM 37.9530 -84.6691 239° Southwest 451 519 36,000  Level FlightAware ADS-B
11:12PM 37.9209 -84.7371 239° Southwest 451 519 36,000  Level FlightAware ADS-B
11:12PM 37.8886 -84.8047 239° Southwest 450 518 36,000  Level FlightAware ADS-B
11:13PM 37.8584 -84.8680 239° Southwest 449 517 36,000  Level FlightAware ADS-B
11:13PM 37.8237 -84.9399 240° Southwest 449 517 36,000  Level FlightAware ADS-B
11:14PM 37.7913 -85.0097 239° Southwest 449 517 36,000  Level FlightAware ADS-B
11:14PM 37.7591 -85.0769 238° Southwest 449 517 36,000  Level FlightAware ADS-B
11:15PM 37.7251 -85.1464 239° Southwest 449 517 36,000  Level FlightAware ADS-B
11:15PM 37.6924 -85.2161 238° Southwest 449 517 36,000  Level FlightAware ADS-B
11:16PM 37.6593 -85.2834 239° Southwest 450 518 36,000  Level FlightAware ADS-B
11:17PM 37.5917 -85.4245 239° Southwest 450 518 36,000  Level FlightAware ADS-B
11:18PM 37.5423 -85.5273 238° Southwest 450 518 36,000  Level FlightAware ADS-B
11:18PM 37.5073 -85.5992 238° Southwest 452 520 36,000  Level FlightAware ADS-B
11:19PM 37.4743 -85.6665 238° Southwest 452 520 36,000  Level FlightAware ADS-B
11:19PM 37.4389 -85.7382 239° Southwest 452 520 36,000  Level FlightAware ADS-B
11:20PM 37.4053 -85.8077 238° Southwest 452 520 36,000  Level FlightAware ADS-B
11:20PM 37.3712 -85.8769 239° Southwest 451 519 36,000  Level FlightAware ADS-B
11:21PM 37.3378 -85.9462 238° Southwest 450 518 36,000  Level FlightAware ADS-B
11:21PM 37.3041 -86.0151 238° Southwest 450 518 36,000  Level FlightAware ADS-B
11:22PM 37.2692 -86.0860 238° Southwest 449 517 36,000  Level FlightAware ADS-B
11:22PM 37.2363 -86.1525 238° Southwest 449 517 36,000  Level FlightAware ADS-B
11:23PM 37.1885 -86.2478 238° Southwest 450 518 36,000  Level FlightAware ADS-B
11:24PM 37.1538 -86.3186 238° Southwest 450 518 36,000  Level FlightAware ADS-B
11:24PM 37.1199 -86.3871 238° Southwest 450 518 36,000  Level FlightAware ADS-B
11:25PM 37.0855 -86.4556 238° Southwest 450 518 36,000  Level FlightAware ADS-B
11:25PM 37.0373 -86.5526 238° Southwest 450 518 36,000  Level FlightAware ADS-B
11:26PM 36.9967 -86.6343 238° Southwest 450 518 36,000  Level FlightAware ADS-B
11:27PM 36.9626 -86.7025 237° Southwest 449 517 36,000  Level FlightAware ADS-B
11:27PM 36.9253 -86.7751 239° Southwest 450 518 36,000  Level FlightAware ADS-B
11:28PM 36.8372 -86.9558 238° Southwest 451 519 36,000  Level Memphis Center
11:29PM 36.7719 -87.0856 238° Southwest 451 519 36,000  Level Memphis Center
11:30PM 36.7044 -87.2178 237° Southwest 451 519 36,000  Level Memphis Center
11:31PM 36.6369 -87.3469 238° Southwest 451 519 36,000  Level Memphis Center
11:32PM 36.5711 -87.4786 237° Southwest 451 519 36,000 -120 Level Memphis Center
11:33PM 36.5053 -87.6050 237° Southwest 446 513 35,800 -540 Descending Memphis Center
11:34PM 36.4372 -87.7336 237° Southwest 446 513 35,000 -900 Descending Memphis Center
11:35PM 36.3711 -87.8619 236° Southwest 451 519 34,000 -1,200 Descending Memphis Center
11:36PM 36.3006 -87.9903 238° Southwest 446 513 32,700 -1,260 Descending Memphis Center
11:37PM 36.2422 -88.1053 238° Southwest 451 519 31,500 -1,380 Descending Memphis Center
11:38PM 36.1739 -88.2383 236° Southwest 451 519 30,000 -1,560 Descending Memphis Center
11:39PM 36.1008 -88.3739 236° Southwest 463 533 28,400 -1,740 Descending Memphis Center
11:40PM 36.0281 -88.5092 237° Southwest 475 547 26,600 -1,620 Descending Memphis Center
11:41PM 35.9569 -88.6467 236° Southwest 475 547 25,200 -1,980 Descending Memphis Center
11:42PM 35.8858 -88.7761 236° Southwest 475 547 22,700 -3,000 Descending Memphis Center
11:43PM 35.8183 -88.9003 237° Southwest 461 531 19,300 -3,300 Descending Memphis Center
11:44PM 35.7531 -89.0244 231° Southwest 446 513 16,100 -3,180 Descending Memphis Center
11:45PM 35.6772 -89.1406 226° Southwest 427 491 13,000 -2,700 Descending Memphis Center
11:46PM 35.6031 -89.2361 226° Southwest 396 456 10,700 -1,680 Descending Memphis Center
11:47PM 35.5511 -89.3028 226° Southwest 367 422 10,000 -480 Descending FAA TRACON SMA TRACON (SMA)
11:48PM 35.5056 -89.3608 226° Southwest 343 395 10,000  Level FAA TRACON SMA TRACON (SMA)
11:49PM 35.4600 -89.4192 216° Southwest 342 394 10,000 -240 Level FAA TRACON SMA TRACON (SMA)
11:49PM 35.4186 -89.4564 212° Southwest 307 353 9,700 -1,500 Descending FAA TRACON SMA TRACON (SMA)
11:50PM 35.3706 -89.4928 213° Southwest 293 337 8,000 -1,980 Descending FAA TRACON SMA TRACON (SMA)
11:50PM 35.3403 -89.5169 212° Southwest 311 358 7,400 -1,260 Descending Memphis Center
11:51PM 35.2719 -89.5686 211° Southwest 293 337 6,100 -1,320 Descending Memphis Center
11:53PM 35.1925 -89.6269 212° Southwest 269 310 4,600 -1,320 Descending FAA TRACON SMA TRACON (SMA)
11:53PM 35.1511 -89.6589 211° Southwest 252 290 3,800 -1,200 Descending FAA TRACON SMA TRACON (SMA)
11:54PM 35.1133 -89.6869 212° Southwest 252 290 3,000 -600 Descending FAA TRACON SMA TRACON (SMA)
11:55PM 35.0750 -89.7167 242° Southwest 229 264 3,000  Level FAA TRACON SMA TRACON (SMA)
11:55PM 35.0542 -89.7639 270° West 237 273 3,000 -240 Level FAA TRACON SMA TRACON (SMA)
11:56PM 35.0539 -89.8078 272° West 219 252 2,700 -780 Descending FAA TRACON SMA TRACON (SMA)
11:57PM 35.0553 -89.8536 272° West 199 229 2,000 -1,020 Descending FAA TRACON SMA TRACON (SMA)
11:57PM 35.0564 -89.8944 272° West 173 199 1,400 -840 Descending FAA TRACON SMA TRACON (SMA)
11:58PM 35.0572 -89.9242 273° West 147 169 900 -780 Descending FAA TRACON SMA TRACON (SMA)
11:59PM 35.0583 -89.9514 360° North 134 154 400 -420 Descending FAA TRACON SMA TRACON (SMA)
11:59PM 35.0583 -89.9514 232° Southwest 134 154 400  Level FAA TRACON SMA TRACON (SMA)
12:08AM 34.4425 -90.9166 53° Northeast  Level Estimated
12:09AM 35.0333 -89.9667 318° Northwest  Level FlightAware Approximate
12:10AM 35.1214 -90.0637 138° Southeast  Level Estimated
12:11AM 35.0333 -89.9667 318° Northwest  Level FlightAware Approximate
12:12AM 35.1214 -90.0637 138° Southeast  Level Estimated
12:13AM 35.0333 -89.9667 318° Northwest  Level FlightAware Approximate
12:14AM 35.1214 -90.0637 138° Southeast  Level Estimated
12:15AM 35.0333 -89.9667 138° Southeast  Level FlightAware Approximate